createdAt,value
2022-08-10T00:00:38.686Z,100423.09
2022-08-10T00:03:07.784Z,100427.16
2022-08-10T00:05:42.993Z,100420.13
2022-08-10T00:08:11.560Z,100420.06
2022-08-10T00:10:55.358Z,100420.66
2022-08-10T00:13:25.359Z,100415.03
2022-08-10T00:15:55.181Z,100418.16
2022-08-10T00:18:31.586Z,100411.81
2022-08-10T00:21:04.891Z,100407.75
2022-08-10T00:23:33.422Z,100417.00
2022-08-10T00:26:00.827Z,100414.81
2022-08-10T00:28:28.198Z,100414.34
2022-08-10T00:30:56.118Z,100412.59
2022-08-10T00:33:23.550Z,100417.47
2022-08-10T00:35:51.085Z,100417.47
2022-08-10T00:38:18.742Z,100418.94
2022-08-10T00:40:46.217Z,100413.63
2022-08-10T00:43:13.645Z,100408.97
2022-08-10T00:45:41.268Z,100411.50
2022-08-10T00:48:10.040Z,100416.06
2022-08-10T00:50:37.881Z,100406.34
2022-08-10T00:53:05.521Z,100404.19
2022-08-10T00:55:32.956Z,100405.94
2022-08-10T00:58:20.962Z,100413.91
2022-08-10T01:00:48.426Z,100408.34
2022-08-10T01:03:15.791Z,100404.88
2022-08-10T01:05:53.740Z,100410.22
2022-08-10T01:08:30.770Z,100415.25
2022-08-10T01:12:39.169Z,100415.84
2022-08-10T01:14:11.019Z,100406.63
2022-08-10T01:16:50.804Z,100415.12
2022-08-10T01:19:49.197Z,100411.09
2022-08-10T01:22:25.776Z,100409.28
2022-08-10T01:25:04.476Z,100407.00
2022-08-10T01:27:51.660Z,100407.44
2022-08-10T01:30:20.749Z,100401.31
2022-08-10T01:32:56.109Z,100409.38
2022-08-10T01:35:34.452Z,100404.34
2022-08-10T01:38:20.295Z,100408.81
2022-08-10T01:40:55.143Z,100411.69
2022-08-10T01:43:25.277Z,100410.03
2022-08-10T01:45:55.996Z,100419.87
2022-08-10T01:48:31.492Z,100411.13
2022-08-10T01:51:27.863Z,100414.34
2022-08-10T01:53:58.145Z,100417.72
2022-08-10T01:56:26.577Z,100424.59
2022-08-10T01:58:58.415Z,100420.03
2022-08-10T02:01:27.004Z,100420.37
2022-08-10T02:04:03.591Z,100424.03
2022-08-10T02:06:42.499Z,100424.81
2022-08-10T02:09:13.633Z,100420.44
2022-08-10T02:12:06.254Z,100421.47
2022-08-10T02:14:34.679Z,100417.16
2022-08-10T02:17:58.524Z,100417.88
2022-08-10T02:20:02.686Z,100423.19
2022-08-10T02:22:45.890Z,100419.87
2022-08-10T02:25:40.033Z,100414.50
2022-08-10T02:28:03.417Z,100415.12
2022-08-10T02:30:31.171Z,100418.81
2022-08-10T02:32:59.072Z,100413.13
2022-08-10T02:35:29.135Z,100416.44
2022-08-10T02:38:08.886Z,100415.41
2022-08-10T02:45:11.082Z,100420.59
2022-08-10T02:45:27.117Z,100428.66
2022-08-10T02:46:49.007Z,100431.88
2022-08-10T02:49:22.448Z,100432.59
2022-08-10T02:52:08.078Z,100432.97
2022-08-10T02:54:39.193Z,100433.63
2022-08-10T02:57:10.554Z,100438.97
2022-08-10T02:59:43.231Z,100440.59
2022-08-10T03:02:16.725Z,100434.41
2022-08-10T03:04:54.580Z,100436.09
2022-08-10T03:07:42.419Z,100439.50
2022-08-10T03:10:17.014Z,100434.97
2022-08-10T03:12:46.074Z,100445.75
2022-08-10T03:15:15.577Z,100456.47
2022-08-10T03:17:57.652Z,100462.69
2022-08-10T03:20:37.184Z,100453.78
2022-08-10T03:23:26.937Z,100457.94
2022-08-10T03:25:56.596Z,100472.88
2022-08-10T03:28:26.499Z,100471.72
2022-08-10T03:30:54.778Z,100464.13
2022-08-10T03:33:23.284Z,100462.94
2022-08-10T03:36:42.228Z,100468.19
2022-08-10T03:38:40.604Z,100472.81
2022-08-10T03:41:10.324Z,100477.31
2022-08-10T03:43:47.687Z,100471.37
2022-08-10T03:46:17.423Z,100466.97
2022-08-10T03:48:49.177Z,100464.75
2022-08-10T03:51:19.030Z,100478.88
2022-08-10T03:54:03.206Z,100474.81
2022-08-10T03:56:38.264Z,100484.37
2022-08-10T03:59:08.266Z,100478.03
2022-08-10T04:02:43.631Z,100485.72
2022-08-10T04:04:25.416Z,100473.44
2022-08-10T04:06:56.101Z,100477.63
2022-08-10T04:09:42.659Z,100483.38
2022-08-10T04:12:16.099Z,100483.28
2022-08-10T04:14:49.340Z,100486.75
2022-08-10T04:18:01.235Z,100495.94
2022-08-10T04:20:29.964Z,100489.16
2022-08-10T04:23:06.796Z,100485.88
2022-08-10T04:25:34.265Z,100485.06
2022-08-10T04:28:03.177Z,100479.06
2022-08-10T04:30:32.199Z,100480.09
2022-08-10T04:32:59.955Z,100485.13
2022-08-10T04:35:28.132Z,100487.28
2022-08-10T04:37:57.096Z,100486.16
2022-08-10T04:40:30.377Z,100479.62
2022-08-10T04:43:03.397Z,100482.38
2022-08-10T04:45:50.193Z,100488.25
2022-08-10T04:48:42.838Z,100488.41
2022-08-10T04:51:16.865Z,100491.09
2022-08-10T04:54:02.717Z,100495.44
2022-08-10T04:56:39.337Z,100488.00
2022-08-10T04:59:09.247Z,100487.22
2022-08-10T05:02:22.339Z,100493.03
2022-08-10T05:04:35.403Z,100493.81
2022-08-10T05:07:16.020Z,100489.69
2022-08-10T05:10:02.780Z,100493.75
2022-08-10T05:12:38.453Z,100491.03
2022-08-10T05:15:07.186Z,100489.69
2022-08-10T05:17:35.937Z,100496.59
2022-08-10T05:20:07.312Z,100492.75
2022-08-10T05:22:35.932Z,100498.44
2022-08-10T05:25:05.176Z,100498.78
2022-08-10T05:27:33.578Z,100490.88
2022-08-10T05:30:03.322Z,100492.13
2022-08-10T05:32:55.413Z,100492.03
2022-08-10T05:35:21.271Z,100494.56
2022-08-10T05:38:09.921Z,100486.75
2022-08-10T05:40:39.291Z,100488.56
2022-08-10T05:43:07.047Z,100488.06
2022-08-10T05:45:34.606Z,100497.75
2022-08-10T05:48:56.966Z,100498.41
2022-08-10T05:51:10.128Z,100497.87
2022-08-10T05:54:02.337Z,100497.16
2022-08-10T05:56:26.544Z,100490.53
2022-08-10T05:59:15.879Z,100497.16
2022-08-10T06:02:33.289Z,100491.97
2022-08-10T06:04:53.845Z,100503.19
2022-08-10T06:07:22.055Z,100489.91
2022-08-10T06:09:59.755Z,100492.75
2022-08-10T06:12:30.863Z,100501.94
2022-08-10T06:15:05.949Z,100500.53
2022-08-10T06:17:38.456Z,100505.88
2022-08-10T06:20:06.447Z,100502.59
2022-08-10T06:22:34.035Z,100495.81
2022-08-10T06:25:37.778Z,100495.50
2022-08-10T06:27:50.884Z,100493.47
2022-08-10T06:30:20.036Z,100497.72
2022-08-10T06:32:50.630Z,100495.88
2022-08-10T06:35:19.263Z,100490.09
2022-08-10T06:37:50.688Z,100488.78
2022-08-10T06:40:20.040Z,100497.50
2022-08-10T06:42:48.850Z,100489.19
2022-08-10T06:45:22.609Z,100488.84
2022-08-10T06:47:55.388Z,100488.16
2022-08-10T06:50:56.149Z,100497.91
2022-08-10T06:53:52.136Z,100483.50
2022-08-10T06:56:37.735Z,100496.00
2022-08-10T06:59:21.208Z,100486.81
2022-08-10T07:01:53.737Z,100486.62
2022-08-10T07:04:33.225Z,100490.09
2022-08-10T07:07:03.626Z,100494.87
2022-08-10T07:09:33.329Z,100485.72
2022-08-10T07:12:07.672Z,100491.69
2022-08-10T07:14:42.582Z,100486.06
2022-08-10T07:17:16.336Z,100482.78
2022-08-10T07:19:50.321Z,100486.56
2022-08-10T07:23:01.305Z,100479.88
2022-08-10T07:25:21.008Z,100483.78
2022-08-10T07:28:00.626Z,100476.44
2022-08-10T07:30:31.769Z,100478.44
2022-08-10T07:33:02.438Z,100468.72
2022-08-10T07:35:37.058Z,100471.41
2022-08-10T07:38:17.014Z,100473.72
2022-08-10T07:40:45.812Z,100475.34
2022-08-10T07:43:13.858Z,100471.63
2022-08-10T07:45:41.257Z,100472.97
2022-08-10T07:48:13.913Z,100470.50
2022-08-10T07:50:41.542Z,100484.81
2022-08-10T07:53:13.600Z,100467.44
2022-08-10T07:56:04.328Z,100469.50
2022-08-10T07:58:32.020Z,100477.47
2022-08-10T08:01:00.389Z,100475.00
2022-08-10T08:03:29.833Z,100489.38
2022-08-10T08:06:05.224Z,100484.63
2022-08-10T08:08:33.673Z,100474.37
2022-08-10T08:11:01.917Z,100480.31
2022-08-10T08:13:29.515Z,100477.34
2022-08-10T08:16:17.330Z,100464.13
2022-08-10T08:18:58.373Z,100465.62
2022-08-10T08:24:04.877Z,100472.00
2022-08-10T08:24:32.963Z,100469.22
2022-08-10T08:27:03.098Z,100474.78
2022-08-10T08:29:34.548Z,100469.97
2022-08-10T08:32:07.159Z,100470.28
2022-08-10T08:34:37.332Z,100467.22
2022-08-10T08:37:06.013Z,100457.56
2022-08-10T08:39:33.744Z,100455.34
2022-08-10T08:42:38.667Z,100461.53
2022-08-10T08:45:22.192Z,100457.28
2022-08-10T08:48:10.612Z,100455.88
2022-08-10T08:51:03.129Z,100456.25
2022-08-10T08:54:07.685Z,100451.69
2022-08-10T08:56:45.827Z,100468.50
2022-08-10T08:59:44.948Z,100465.97
2022-08-10T09:02:34.770Z,100462.16
2022-08-10T09:05:24.210Z,100453.84
2022-08-10T09:08:01.996Z,100463.38
2022-08-10T09:10:50.588Z,100458.44
2022-08-10T09:13:37.796Z,100448.53
2022-08-10T09:16:10.576Z,100454.44
2022-08-10T09:18:56.521Z,100456.66
2022-08-10T09:21:29.737Z,100443.47
2022-08-10T09:24:04.726Z,100448.41
2022-08-10T09:26:42.259Z,100443.69
2022-08-10T09:29:20.037Z,100446.81
2022-08-10T09:33:05.541Z,100439.28
2022-08-10T09:36:20.910Z,100438.75
2022-08-10T09:38:17.100Z,100442.84
2022-08-10T09:41:33.898Z,100435.09
2022-08-10T09:44:19.684Z,100436.87
2022-08-10T09:46:47.267Z,100438.06
2022-08-10T09:50:04.341Z,100435.69
2022-08-10T09:53:07.118Z,100427.63
2022-08-10T09:56:19.012Z,100431.84
2022-08-10T09:59:59.564Z,100429.66
2022-08-10T10:02:20.995Z,100424.69
2022-08-10T10:04:57.693Z,100432.75
2022-08-10T10:07:29.121Z,100421.84
2022-08-10T10:10:04.386Z,100415.03
2022-08-10T10:13:06.099Z,100420.25
2022-08-10T10:15:39.860Z,100422.25
2022-08-10T10:18:29.134Z,100409.50
2022-08-10T10:21:24.092Z,100412.00
2022-08-10T10:24:41.767Z,100404.09
2022-08-10T10:27:28.100Z,100400.41
2022-08-10T10:30:10.166Z,100405.34
2022-08-10T10:32:59.509Z,100403.09
2022-08-10T10:35:37.278Z,100389.81
2022-08-10T10:38:09.405Z,100380.81
2022-08-10T10:40:51.506Z,100388.66
2022-08-10T10:43:38.009Z,100397.84
2022-08-10T10:46:23.238Z,100386.00
2022-08-10T10:49:07.723Z,100378.22
2022-08-10T10:51:50.630Z,100376.84
2022-08-10T10:54:51.176Z,100371.38
2022-08-10T10:57:58.933Z,100366.06
2022-08-10T11:00:18.503Z,100371.72
2022-08-10T11:02:57.841Z,100374.97
2022-08-10T11:05:40.687Z,100375.59
2022-08-10T11:08:12.210Z,100373.63
2022-08-10T11:10:59.625Z,100376.69
2022-08-10T11:14:27.235Z,100366.53
2022-08-10T11:17:00.211Z,100369.50
2022-08-10T11:20:03.059Z,100357.16
2022-08-10T11:22:51.598Z,100368.78
2022-08-10T11:25:25.489Z,100375.63
2022-08-10T11:27:58.987Z,100346.44
2022-08-10T11:30:33.893Z,100356.41
2022-08-10T11:33:11.825Z,100344.78
2022-08-10T11:35:47.598Z,100352.91
2022-08-10T11:38:47.209Z,100351.91
2022-08-10T11:42:09.117Z,100348.84
2022-08-10T11:44:31.387Z,100349.84
2022-08-10T11:47:05.051Z,100349.84
2022-08-10T11:49:37.871Z,100352.03
2022-08-10T11:52:31.770Z,100358.75
2022-08-10T11:55:06.165Z,100348.53
2022-08-10T11:57:54.732Z,100354.59
2022-08-10T12:00:23.442Z,100340.31
2022-08-10T12:02:55.551Z,100340.69
2022-08-10T12:05:48.214Z,100340.41
2022-08-10T12:10:04.663Z,100329.66
2022-08-10T12:11:24.687Z,100340.69
2022-08-10T12:14:21.993Z,100340.69
2022-08-10T12:17:08.246Z,100332.72
2022-08-10T12:20:02.062Z,100334.78
2022-08-10T12:23:02.292Z,100328.22
2022-08-10T12:25:57.847Z,100317.84
2022-08-10T12:28:49.894Z,100318.56
2022-08-10T12:31:30.145Z,100325.78
2022-08-10T12:34:18.748Z,100327.50
2022-08-10T12:36:57.809Z,100331.97
2022-08-10T12:39:28.132Z,100323.09
2022-08-10T12:42:10.799Z,100312.81
2022-08-10T12:44:57.763Z,100303.16
2022-08-10T12:47:40.394Z,100318.53
2022-08-10T12:50:30.460Z,100315.97
2022-08-10T12:53:08.021Z,100305.47
2022-08-10T12:55:38.553Z,100307.28
2022-08-10T12:58:58.169Z,100306.84
2022-08-10T13:01:15.253Z,100295.31
2022-08-10T13:04:21.111Z,100305.34
2022-08-10T13:06:36.038Z,100299.09
2022-08-10T13:09:09.482Z,100295.56
2022-08-10T13:12:44.947Z,100289.72
2022-08-10T13:14:32.875Z,100283.97
2022-08-10T13:17:00.460Z,100287.13
2022-08-10T13:19:54.639Z,100291.44
2022-08-10T13:22:17.524Z,100287.75
2022-08-10T13:24:48.733Z,100280.34
2022-08-10T13:28:02.594Z,100274.03
2022-08-10T13:30:14.569Z,100283.22
2022-08-10T13:32:48.423Z,100277.00
2022-08-10T13:35:19.992Z,100281.53
2022-08-10T13:37:47.861Z,100271.19
2022-08-10T13:40:16.819Z,100272.41
2022-08-10T13:42:45.984Z,100276.62
2022-08-10T13:45:20.431Z,100269.28
2022-08-10T13:47:54.828Z,100273.47
2022-08-10T13:50:33.396Z,100266.22
2022-08-10T13:53:11.659Z,100264.41
2022-08-10T13:55:55.380Z,100266.75
2022-08-10T13:58:27.074Z,100261.09
2022-08-10T14:00:56.697Z,100260.97
2022-08-10T14:03:25.976Z,100264.41
2022-08-10T14:05:55.241Z,100259.28
2022-08-10T14:08:28.014Z,100256.16
2022-08-10T14:11:09.139Z,100247.25
2022-08-10T14:14:02.942Z,100262.06
2022-08-10T14:16:32.779Z,100257.00
2022-08-10T14:19:04.065Z,100252.00
2022-08-10T14:21:37.799Z,100239.34
2022-08-10T14:24:05.380Z,100240.69
2022-08-10T14:26:33.005Z,100236.75
2022-08-10T14:29:07.013Z,100239.47
2022-08-10T14:31:36.984Z,100239.94
2022-08-10T14:34:06.689Z,100230.53
2022-08-10T14:36:44.325Z,100233.69
2022-08-10T14:39:16.045Z,100233.72
2022-08-10T14:42:01.695Z,100233.09
2022-08-10T14:44:57.280Z,100229.50
2022-08-10T14:48:02.770Z,100237.25
2022-08-10T14:50:31.748Z,100240.16
2022-08-10T14:53:27.417Z,100229.28
2022-08-10T14:56:00.856Z,100232.59
2022-08-10T14:58:35.784Z,100228.47
2022-08-10T15:01:07.835Z,100221.62
2022-08-10T15:03:58.974Z,100226.34
2022-08-10T15:06:31.301Z,100224.03
2022-08-10T15:09:19.418Z,100227.72
2022-08-10T15:12:13.535Z,100217.66
2022-08-10T15:14:43.515Z,100220.25
2022-08-10T15:17:16.358Z,100213.41
2022-08-10T15:20:02.843Z,100221.81
2022-08-10T15:22:38.325Z,100225.97
2022-08-10T15:25:18.364Z,100217.53
2022-08-10T15:27:53.917Z,100223.28
2022-08-10T15:30:31.518Z,100221.91
2022-08-10T15:34:03.403Z,100216.03
2022-08-10T15:36:33.598Z,100214.84
2022-08-10T15:39:04.282Z,100216.81
2022-08-10T15:41:57.378Z,100217.19
2022-08-10T15:44:38.341Z,100212.91
2022-08-10T15:47:09.392Z,100209.38
2022-08-10T15:49:48.105Z,100210.94
2022-08-10T15:52:39.505Z,100215.59
2022-08-10T15:55:43.068Z,100212.53
2022-08-10T15:58:39.522Z,100215.19
2022-08-10T16:02:14.205Z,100213.16
2022-08-10T16:04:09.417Z,100218.75
2022-08-10T16:06:45.004Z,100215.31
2022-08-10T16:10:26.536Z,100217.19
2022-08-10T16:12:13.389Z,100204.88
2022-08-10T16:14:45.328Z,100206.84
2022-08-10T16:17:13.283Z,100201.69
2022-08-10T16:19:53.617Z,100215.31
2022-08-10T16:22:35.776Z,100218.09
2022-08-10T16:25:13.997Z,100218.00
2022-08-10T16:27:41.602Z,100209.53
2022-08-10T16:30:09.760Z,100206.87
2022-08-10T16:32:38.396Z,100206.59
2022-08-10T16:35:09.757Z,100204.81
2022-08-10T16:37:58.047Z,100214.31
2022-08-10T16:40:26.026Z,100211.88
2022-08-10T16:42:54.052Z,100218.91
2022-08-10T16:45:29.607Z,100213.66
2022-08-10T16:47:57.855Z,100215.72
2022-08-10T16:50:35.163Z,100215.16
2022-08-10T16:53:06.897Z,100212.94
2022-08-10T16:55:48.740Z,100207.59
2022-08-10T16:58:25.230Z,100220.25
2022-08-10T17:00:57.962Z,100219.22
2022-08-10T17:04:07.171Z,100217.69
2022-08-10T17:06:22.811Z,100221.91
2022-08-10T17:08:53.728Z,100222.88
2022-08-10T17:11:22.775Z,100217.69
2022-08-10T17:13:50.457Z,100223.25
2022-08-10T17:16:18.207Z,100229.75
2022-08-10T17:18:46.920Z,100223.91
2022-08-10T17:21:20.712Z,100229.66
2022-08-10T17:23:53.213Z,100228.91
2022-08-10T17:26:35.748Z,100228.19
2022-08-10T17:29:57.849Z,100237.13
2022-08-10T17:32:11.508Z,100227.25
2022-08-10T17:34:40.827Z,100238.19
2022-08-10T17:37:15.983Z,100237.69
2022-08-10T17:39:48.674Z,100239.06
2022-08-10T17:42:21.771Z,100243.97
2022-08-10T17:44:51.686Z,100244.75
2022-08-10T17:47:19.910Z,100247.53
2022-08-10T17:49:47.430Z,100242.53
2022-08-10T17:52:20.352Z,100250.97
2022-08-10T17:54:54.911Z,100251.72
2022-08-10T17:57:23.268Z,100244.22
2022-08-10T17:59:51.960Z,100247.88
2022-08-10T18:02:26.849Z,100238.22
2022-08-10T18:04:57.188Z,100246.16
2022-08-10T18:07:39.094Z,100245.97
2022-08-10T18:10:09.802Z,100249.28
2022-08-10T18:12:45.349Z,100246.28
2022-08-10T18:15:16.123Z,100249.19
2022-08-10T18:17:46.680Z,100252.19
2022-08-10T18:20:14.868Z,100253.69
2022-08-10T18:22:49.298Z,100254.84
2022-08-10T18:25:20.024Z,100257.22
2022-08-10T18:28:03.861Z,100262.00
2022-08-10T18:30:36.180Z,100261.47
2022-08-10T18:33:04.968Z,100269.50
2022-08-10T18:35:35.007Z,100271.63
2022-08-10T18:38:03.097Z,100277.00
2022-08-10T18:40:36.276Z,100272.28
2022-08-10T18:43:10.206Z,100277.84
2022-08-10T18:45:56.674Z,100282.31
2022-08-10T18:48:27.974Z,100285.19
2022-08-10T18:50:55.807Z,100284.00
2022-08-10T18:53:41.128Z,100288.88
2022-08-10T18:56:17.812Z,100293.56
2022-08-10T18:59:13.334Z,100289.16
2022-08-10T19:02:17.788Z,100291.41
2022-08-10T19:05:30.680Z,100296.81
2022-08-10T19:08:33.885Z,100295.97
2022-08-10T19:11:22.505Z,100294.22
2022-08-10T19:13:59.026Z,100297.19
2022-08-10T19:16:35.948Z,100301.66
2022-08-10T19:19:22.063Z,100308.16
2022-08-10T19:22:02.472Z,100310.03
2022-08-10T19:24:44.844Z,100308.63
2022-08-10T19:27:41.456Z,100305.78
2022-08-10T19:30:13.715Z,100316.19
2022-08-10T19:32:44.084Z,100309.88
2022-08-10T19:36:04.046Z,100316.84
2022-08-10T19:38:50.499Z,100310.28
2022-08-10T19:41:30.965Z,100317.06
2022-08-10T19:44:06.874Z,100310.38
2022-08-10T19:46:49.407Z,100315.47
2022-08-10T19:49:24.419Z,100316.44
2022-08-10T19:52:11.638Z,100320.44
2022-08-10T19:54:59.765Z,100314.50
2022-08-10T19:58:10.093Z,100316.50
2022-08-10T20:00:50.095Z,100322.47
2022-08-10T20:03:21.912Z,100326.84
2022-08-10T20:06:18.787Z,100323.91
2022-08-10T20:08:59.557Z,100321.78
2022-08-10T20:11:44.273Z,100326.16
2022-08-10T20:14:23.897Z,100327.12
2022-08-10T20:16:56.035Z,100328.25
2022-08-10T20:19:52.929Z,100324.94
2022-08-10T20:22:31.242Z,100322.75
2022-08-10T20:25:07.100Z,100321.03
2022-08-10T20:27:58.632Z,100322.25
2022-08-10T20:30:30.550Z,100333.34
2022-08-10T20:33:18.277Z,100338.47
2022-08-10T20:36:08.375Z,100340.56
2022-08-10T20:38:35.578Z,100345.13
2022-08-10T20:41:15.644Z,100341.69
2022-08-10T20:44:03.775Z,100340.56
2022-08-10T20:46:37.956Z,100346.75
2022-08-10T20:49:20.504Z,100355.47
2022-08-10T20:51:58.114Z,100345.28
2022-08-10T20:54:52.233Z,100351.22
2022-08-10T20:57:56.474Z,100356.47
2022-08-10T21:00:23.285Z,100360.03
2022-08-10T21:03:58.675Z,100364.38
2022-08-10T21:06:44.935Z,100358.91
2022-08-10T21:09:28.215Z,100356.84
2022-08-10T21:12:26.260Z,100355.34
2022-08-10T21:14:56.595Z,100366.09
2022-08-10T21:17:51.741Z,100358.09
2022-08-10T21:20:59.479Z,100356.72
2022-08-10T21:23:30.711Z,100365.97
2022-08-10T21:26:29.309Z,100353.97
2022-08-10T21:29:39.944Z,100366.53
2022-08-10T21:32:48.189Z,100367.41
2022-08-10T21:35:36.650Z,100365.78
2022-08-10T21:38:21.476Z,100370.78
2022-08-10T21:41:17.567Z,100362.34
2022-08-10T21:44:18.231Z,100361.63
2022-08-10T21:47:30.986Z,100363.88
2022-08-10T21:50:27.553Z,100357.88
2022-08-10T21:53:13.800Z,100366.09
2022-08-10T21:56:27.719Z,100372.03
2022-08-10T21:59:42.776Z,100371.97
2022-08-10T22:02:31.821Z,100374.66
2022-08-10T22:05:21.790Z,100368.94
2022-08-10T22:08:12.112Z,100367.75
2022-08-10T22:11:01.662Z,100373.09
2022-08-10T22:13:49.245Z,100369.72
2022-08-10T22:17:04.929Z,100371.56
2022-08-10T22:19:54.345Z,100369.66
2022-08-10T22:22:56.147Z,100368.78
2022-08-10T22:26:13.693Z,100371.72
2022-08-10T22:29:08.139Z,100373.94
2022-08-10T22:32:03.441Z,100371.09
2022-08-10T22:34:58.270Z,100374.03
2022-08-10T22:38:07.669Z,100366.72
2022-08-10T22:40:54.392Z,100366.28
2022-08-10T22:43:46.465Z,100368.19
2022-08-10T22:46:37.892Z,100367.47
2022-08-10T22:49:05.380Z,100361.06
2022-08-10T22:51:52.886Z,100361.91
2022-08-10T22:54:59.895Z,100367.56
2022-08-10T22:57:46.401Z,100372.53
2022-08-10T23:00:16.755Z,100366.37
2022-08-10T23:02:50.871Z,100365.06
2022-08-10T23:05:24.661Z,100372.69
2022-08-10T23:08:29.662Z,100371.41
2022-08-10T23:11:04.422Z,100373.34
2022-08-10T23:13:36.908Z,100375.78
2022-08-10T23:16:27.632Z,100372.34
2022-08-10T23:19:12.052Z,100365.97
2022-08-10T23:22:04.075Z,100365.56
2022-08-10T23:25:03.894Z,100365.63
2022-08-10T23:27:39.274Z,100364.22
2022-08-10T23:30:18.027Z,100372.97
2022-08-10T23:32:51.905Z,100364.22
2022-08-10T23:36:05.479Z,100363.84
2022-08-10T23:38:09.572Z,100368.87
2022-08-10T23:40:37.579Z,100353.56
2022-08-10T23:43:05.455Z,100352.37
2022-08-10T23:45:52.546Z,100351.91
2022-08-10T23:48:24.136Z,100345.81
2022-08-10T23:50:59.638Z,100344.53
2022-08-10T23:53:33.666Z,100349.81
2022-08-10T23:56:21.054Z,100340.41
2022-08-10T23:58:54.572Z,100341.50
